Time;durP1;ratioP1;P1;durP2;ratioP2;P2;SDS_P1;SDS_P2;PMS_P1;PMS_P2;Temp;Humidity;BMP_temperature;BMP_pressure;BME280_temperature;BME280_humidity;BME280_pressure;Samples;Min_cycle;Max_cycle;Signal;HPM_P1;HPM_P2
2024/01/30 00:02:11;;;;;;;32.22;17.55;;;;;;;6.16;100.00;102611.38;5006853;28;20692;-45
2024/01/30 00:04:37;;;;;;;37.55;16.90;;;;;;;6.14;100.00;102600.75;5024029;28;20193;-47
2024/01/30 00:07:03;;;;;;;28.88;17.05;;;;;;;6.17;100.00;102608.75;5021862;28;20272;-43
2024/01/30 00:09:28;;;;;;;35.30;17.40;;;;;;;6.18;100.00;102604.31;5024048;28;20192;-42
2024/01/30 00:11:54;;;;;;;43.08;18.48;;;;;;;6.19;100.00;102603.44;5022025;28;20283;-46
2024/01/30 00:14:19;;;;;;;31.98;16.92;;;;;;;6.19;100.00;102607.00;5025850;28;20218;-43
2024/01/30 00:16:45;;;;;;;43.25;19.15;;;;;;;6.16;100.00;102601.63;5021023;28;20202;-44
2024/01/30 00:19:10;;;;;;;40.72;18.50;;;;;;;6.16;100.00;102598.97;5030345;28;20708;-46
2024/01/30 00:21:36;;;;;;;47.17;19.63;;;;;;;6.18;100.00;102593.66;5025041;28;20207;-44
2024/01/30 00:24:02;;;;;;;43.80;19.38;;;;;;;6.17;100.00;102595.44;5023886;28;20185;-45
2024/01/30 00:26:27;;;;;;;45.47;19.65;;;;;;;6.16;100.00;102601.63;5021113;28;20283;-44
2024/01/30 00:28:52;;;;;;;42.50;18.58;;;;;;;6.16;100.00;102590.97;5007245;28;20192;-44
2024/01/30 00:31:18;;;;;;;35.72;18.10;;;;;;;6.19;100.00;102591.03;5019856;28;20184;-42
2024/01/30 00:33:43;;;;;;;38.85;18.35;;;;;;;6.18;100.00;102596.31;5028605;28;20233;-45
2024/01/30 00:36:10;;;;;;;43.35;19.40;;;;;;;6.18;100.00;102597.22;5024400;28;20295;-44
2024/01/30 00:38:36;;;;;;;39.75;19.17;;;;;;;6.18;100.00;102596.31;5027059;28;20275;-44
2024/01/30 00:41:02;;;;;;;37.00;17.75;;;;;;;6.16;100.00;102601.63;5024554;28;20203;-44
2024/01/30 00:43:27;;;;;;;40.28;18.67;;;;;;;6.14;100.00;102602.50;5021838;28;20189;-44
2024/01/30 00:45:53;;;;;;;36.20;18.27;;;;;;;6.08;100.00;102598.03;5021962;28;20207;-45
2024/01/30 00:48:19;;;;;;;31.88;17.63;;;;;;;5.98;100.00;102593.50;5022800;28;20638;-42
2024/01/30 00:50:45;;;;;;;35.58;16.13;;;;;;;5.92;100.00;102610.25;5022456;28;20191;-43
2024/01/30 00:53:11;;;;;;;31.23;16.33;;;;;;;5.90;100.00;102597.81;5002144;28;20181;-42
2024/01/30 00:55:36;;;;;;;28.40;14.77;;;;;;;5.86;100.00;102593.31;5021549;28;20203;-43
2024/01/30 00:58:02;;;;;;;26.50;14.90;;;;;;;5.85;100.00;102597.75;5021736;28;20263;-44
2024/01/30 01:00:29;;;;;;;34.10;15.75;;;;;;;5.88;100.00;102592.50;5020748;28;20591;-50
2024/01/30 01:03:01;;;;;;;29.48;15.50;;;;;;;5.84;100.00;102600.41;5022044;28;20626;-44
2024/01/30 01:05:26;;;;;;;27.35;15.05;;;;;;;5.86;100.00;102601.31;5026656;28;20268;-46
2024/01/30 01:07:52;;;;;;;24.33;14.55;;;;;;;5.91;100.00;102595.16;5023298;28;20208;-45
2024/01/30 01:10:18;;;;;;;29.90;15.57;;;;;;;5.85;100.00;102604.88;5019251;28;20579;-46
2024/01/30 01:12:44;;;;;;;24.75;15.80;;;;;;;5.88;100.00;102599.56;4994802;28;20306;-44
2024/01/30 01:15:10;;;;;;;26.73;15.40;;;;;;;5.92;100.00;102612.00;5024051;28;20180;-42
2024/01/30 01:17:36;;;;;;;29.48;15.80;;;;;;;5.82;100.00;102600.41;5002428;28;20207;-44
2024/01/30 01:20:03;;;;;;;26.27;14.88;;;;;;;5.78;100.00;102603.91;5025269;28;20647;-43
2024/01/30 01:22:30;;;;;;;27.30;14.55;;;;;;;5.85;100.00;102610.19;5021171;28;20184;-42
2024/01/30 01:24:55;;;;;;;22.63;14.23;;;;;;;5.93;100.00;102595.19;5025586;28;20180;-48
2024/01/30 01:27:21;;;;;;;23.77;13.75;;;;;;;5.91;100.00;102599.59;5022607;28;20729;-43
2024/01/30 01:29:46;;;;;;;29.13;15.27;;;;;;;5.86;100.00;102586.25;5026169;28;20556;-45
2024/01/30 01:32:12;;;;;;;24.20;13.77;;;;;;;5.93;100.00;102593.41;5023239;28;20180;-46
2024/01/30 01:34:37;;;;;;;27.15;14.70;;;;;;;5.88;100.00;102592.50;5022750;28;20711;-43
2024/01/30 01:37:03;;;;;;;24.75;13.60;;;;;;;5.89;100.00;102588.06;5022021;28;20233;-44
2024/01/30 01:39:28;;;;;;;21.85;14.23;;;;;;;5.86;100.00;102580.03;5016290;28;20242;-46
2024/01/30 01:41:56;;;;;;;20.38;13.57;;;;;;;5.81;100.00;102579.09;5020972;28;20884;-46
2024/01/30 01:44:22;;;;;;;23.85;12.63;;;;;;;5.85;100.00;102567.63;5024104;28;20187;-42
2024/01/30 01:46:47;;;;;;;22.63;14.23;;;;;;;5.82;100.00;102564.94;5027019;28;20218;-47
2024/01/30 01:49:14;;;;;;;20.92;13.23;;;;;;;5.78;100.00;102566.66;5020789;28;20188;-44
2024/01/30 01:51:41;;;;;;;21.33;13.50;;;;;;;5.81;100.00;102565.81;5025773;28;20215;-48
2024/01/30 01:54:06;;;;;;;24.60;14.38;;;;;;;5.82;100.00;102557.84;5021799;28;20223;-49
2024/01/30 01:56:33;;;;;;;25.38;14.38;;;;;;;5.82;100.00;102562.28;5018212;28;20236;-51
2024/01/30 01:59:09;;;;;;;22.75;13.90;;;;;;;5.92;100.00;102554.38;5023039;28;20183;-44
2024/01/30 02:01:38;;;;;;;27.00;14.82;;;;;;;5.89;100.00;102538.41;5017854;28;20200;-43
2024/01/30 02:04:04;;;;;;;23.55;14.93;;;;;;;5.84;100.00;102541.88;5015759;28;20188;-44
2024/01/30 02:06:30;;;;;;;24.02;14.35;;;;;;;5.80;100.00;102540.97;5020771;28;20559;-43
2024/01/30 02:08:56;;;;;;;21.70;14.57;;;;;;;5.87;100.00;102544.59;5017178;28;20194;-41
2024/01/30 02:11:23;;;;;;;23.48;13.93;;;;;;;5.89;100.00;102541.06;5020754;28;20180;-43
2024/01/30 02:13:50;;;;;;;23.17;14.65;;;;;;;5.96;100.00;102550.00;5015442;28;20237;-41
2024/01/30 02:16:17;;;;;;;21.75;14.60;;;;;;;5.96;100.00;102542.03;5017442;28;20603;-41
2024/01/30 02:18:45;;;;;;;23.17;14.70;;;;;;;5.95;100.00;102550.91;5017238;28;20234;-42
2024/01/30 02:21:11;;;;;;;29.13;15.10;;;;;;;5.99;100.00;102544.72;5018616;28;20196;-42
2024/01/30 02:23:37;;;;;;;28.00;15.82;;;;;;;6.00;100.00;102551.81;5017862;28;20234;-42
2024/01/30 02:26:03;;;;;;;23.17;14.25;;;;;;;6.04;100.00;102539.47;5022834;28;20219;-42
2024/01/30 02:28:28;;;;;;;29.80;15.00;;;;;;;6.06;100.00;102546.56;5020046;28;20558;-41
2024/01/30 02:30:54;;;;;;;27.27;15.90;;;;;;;6.03;100.00;102542.97;5023843;28;20303;-42
2024/01/30 02:33:21;;;;;;;25.05;15.50;;;;;;;6.04;100.00;102542.13;5019985;28;20263;-44
2024/01/30 02:35:47;;;;;;;24.02;15.18;;;;;;;6.02;100.00;102525.25;5020449;28;20260;-41
2024/01/30 02:38:13;;;;;;;22.00;14.73;;;;;;;5.99;100.00;102526.09;5018955;28;20218;-42
2024/01/30 02:40:38;;;;;;;20.90;14.07;;;;;;;5.94;100.00;102519.81;5020516;28;20287;-42
2024/01/30 02:43:05;;;;;;;23.52;14.48;;;;;;;5.86;100.00;102505.53;5019427;28;20207;-41
2024/01/30 02:45:30;;;;;;;27.90;14.93;;;;;;;5.78;100.00;102497.53;5019554;28;20201;-41
2024/01/30 02:47:56;;;;;;;25.08;14.65;;;;;;;5.71;100.00;102501.00;5018950;28;20184;-42
2024/01/30 02:50:21;;;;;;;17.73;13.57;;;;;;;5.66;100.00;102500.94;5016025;28;20246;-42
2024/01/30 02:52:47;;;;;;;21.15;14.48;;;;;;;5.58;100.00;102490.25;5022348;28;20184;-42
2024/01/30 02:55:12;;;;;;;22.10;13.82;;;;;;;5.55;100.00;102492.91;5018013;28;20664;-43
2024/01/30 02:57:38;;;;;;;24.20;13.55;;;;;;;5.53;100.00;102489.34;5015626;28;20211;-42
2024/01/30 03:00:06;;;;;;;24.67;13.82;;;;;;;5.49;100.00;102492.84;5021592;28;20658;-42
2024/01/30 03:02:32;;;;;;;23.33;14.57;;;;;;;5.45;100.00;102482.16;5019235;28;20180;-42
2024/01/30 03:04:59;;;;;;;22.90;14.07;;;;;;;5.42;100.00;102472.38;5021574;28;20191;-42
2024/01/30 03:07:24;;;;;;;20.35;14.02;;;;;;;5.41;100.00;102469.72;5010700;28;20611;-42
2024/01/30 03:09:50;;;;;;;24.50;14.25;;;;;;;5.30;100.00;102465.19;5021084;28;20198;-41
2024/01/30 03:12:15;;;;;;;21.75;13.60;;;;;;;5.23;100.00;102470.44;5019966;28;20168;-41
2024/01/30 03:14:41;;;;;;;25.13;13.55;;;;;;;5.21;100.00;102462.44;5020673;28;20804;-41
2024/01/30 03:17:07;;;;;;;22.08;13.75;;;;;;;5.15;100.00;102470.34;5024444;28;20561;-42
2024/01/30 03:19:33;;;;;;;25.05;15.02;;;;;;;5.10;100.00;102464.97;5026456;28;20183;-41
2024/01/30 03:21:59;;;;;;;21.77;13.13;;;;;;;5.11;100.00;102463.19;5021540;28;20273;-41
2024/01/30 03:24:24;;;;;;;21.38;13.38;;;;;;;5.07;100.00;102469.34;5021120;28;20220;-42
2024/01/30 03:26:50;;;;;;;23.13;14.25;;;;;;;5.07;100.00;102472.00;5021691;28;20240;-42
2024/01/30 03:29:16;;;;;;;21.33;14.45;;;;;;;5.05;100.00;102471.09;5025183;28;20198;-42
2024/01/30 03:31:41;;;;;;;26.40;14.02;;;;;;;5.03;100.00;102479.06;5019586;28;20591;-41
2024/01/30 03:34:07;;;;;;;22.77;14.02;;;;;;;5.00;100.00;102478.13;5025170;28;20269;-42
2024/01/30 03:36:34;;;;;;;20.23;13.77;;;;;;;4.95;100.00;102480.75;5021998;28;20212;-42
2024/01/30 03:39:00;;;;;;;22.52;13.57;;;;;;;4.88;100.00;102479.78;5000025;28;20263;-42
2024/01/30 03:41:25;;;;;;;21.58;13.20;;;;;;;4.85;100.00;102474.41;5019900;28;20603;-42
2024/01/30 03:43:51;;;;;;;21.27;12.82;;;;;;;4.83;100.00;102472.63;5023909;28;20191;-40
2024/01/30 03:46:16;;;;;;;17.88;13.00;;;;;;;4.82;100.00;102476.16;5022240;28;20302;-42
2024/01/30 03:48:42;;;;;;;18.30;13.70;;;;;;;4.76;100.00;102474.31;5010426;28;20184;-41
2024/01/30 03:51:14;;;;;;;19.67;12.98;;;;;;;4.79;100.00;102479.69;5013196;23;20725;-45
2024/01/30 03:53:41;;;;;;;17.33;12.45;;;;;;;4.79;100.00;102474.38;4989414;28;20204;-46
2024/01/30 03:56:07;;;;;;;17.55;13.20;;;;;;;4.83;100.00;102470.88;4976728;28;20280;-44
2024/01/30 03:58:33;;;;;;;18.67;12.05;;;;;;;4.84;100.00;102480.63;4988299;28;20186;-45
2024/01/30 04:00:58;;;;;;;19.00;12.52;;;;;;;4.79;100.00;102473.44;4984206;28;20260;-45
2024/01/30 04:03:24;;;;;;;20.08;13.73;;;;;;;4.73;100.00;102474.28;4985756;28;20268;-47
2024/01/30 04:05:51;;;;;;;28.67;17.63;;;;;;;4.74;100.00;102470.75;4986069;28;20264;-43
2024/01/30 04:08:16;;;;;;;23.48;13.43;;;;;;;4.72;100.00;102470.75;4988944;28;20257;-45
2024/01/30 04:10:42;;;;;;;21.00;12.90;;;;;;;4.59;100.00;102465.25;4986946;28;20201;-45
2024/01/30 04:13:07;;;;;;;15.93;11.68;;;;;;;4.65;100.00;102460.91;4985369;28;20649;-46
2024/01/30 04:15:32;;;;;;;18.42;12.55;;;;;;;4.57;100.00;102473.22;4984926;28;20186;-45
2024/01/30 04:17:59;;;;;;;22.20;12.02;;;;;;;4.49;100.00;102466.91;4987813;28;20193;-45
2024/01/30 04:20:25;;;;;;;18.42;11.77;;;;;;;4.49;100.00;102466.91;4985187;28;20289;-45
2024/01/30 04:22:50;;;;;;;17.55;12.02;;;;;;;4.50;100.00;102456.31;4984219;28;20216;-46
2024/01/30 04:25:16;;;;;;;18.83;11.65;;;;;;;4.45;100.00;102465.97;4984333;28;20186;-45
2024/01/30 04:27:42;;;;;;;18.83;11.95;;;;;;;4.40;100.00;102450.88;4987792;28;20232;-46
2024/01/30 04:30:08;;;;;;;19.20;12.43;;;;;;;4.37;100.00;102453.47;4985924;28;20185;-46
2024/01/30 04:32:33;;;;;;;15.90;11.65;;;;;;;4.34;100.00;102454.31;4981916;28;20605;-42
2024/01/30 04:34:58;;;;;;;20.38;11.38;;;;;;;4.37;100.00;102448.16;4986551;28;20216;-46
2024/01/30 04:37:24;;;;;;;22.98;13.13;;;;;;;4.32;100.00;102446.31;4987316;28;20206;-46
2024/01/30 04:39:50;;;;;;;16.08;11.35;;;;;;;4.30;100.00;102460.44;4979594;28;20185;-45
2024/01/30 04:42:17;;;;;;;17.35;12.38;;;;;;;4.29;100.00;102458.69;4983968;28;20213;-44
2024/01/30 04:44:43;;;;;;;17.65;11.82;;;;;;;4.22;100.00;102457.69;4984370;28;20265;-46
2024/01/30 04:47:11;;;;;;;19.00;11.88;;;;;;;4.25;100.00;102465.69;4985918;28;20255;-45
2024/01/30 04:49:36;;;;;;;18.80;12.60;;;;;;;4.26;100.00;102461.25;4984055;28;20304;-45
2024/01/30 04:52:02;;;;;;;15.05;10.52;;;;;;;4.20;100.00;102458.50;4988944;28;20185;-46
2024/01/30 04:54:27;;;;;;;14.57;10.95;;;;;;;4.24;100.00;102463.00;4987042;28;20587;-46
2024/01/30 04:56:53;;;;;;;17.95;11.63;;;;;;;4.26;100.00;102467.50;4989114;28;20208;-44
2024/01/30 04:59:18;;;;;;;17.90;11.55;;;;;;;4.26;100.00;102461.25;4984708;28;20264;-45
2024/01/30 05:01:44;;;;;;;18.00;11.43;;;;;;;4.25;100.00;102465.69;4985141;28;20193;-46
2024/01/30 05:04:11;;;;;;;15.27;11.40;;;;;;;4.22;100.00;102459.44;4985592;28;20212;-44
2024/01/30 05:06:36;;;;;;;15.15;11.40;;;;;;;4.15;100.00;102447.84;4983825;28;20193;-45
2024/01/30 05:09:04;;;;;;;16.40;11.35;;;;;;;4.19;100.00;102452.31;4985551;28;20282;-46
2024/01/30 05:11:30;;;;;;;18.08;11.77;;;;;;;4.16;100.00;102441.69;4982828;28;20252;-44
2024/01/30 05:13:55;;;;;;;17.52;11.60;;;;;;;4.10;100.00;102446.91;4983769;28;20686;-46
2024/01/30 05:16:20;;;;;;;15.57;10.85;;;;;;;4.05;100.00;102440.66;4984356;28;20213;-45
2024/01/30 05:18:46;;;;;;;14.68;11.15;;;;;;;4.04;100.00;102434.44;4982345;28;20790;-45
2024/01/30 05:21:11;;;;;;;15.43;10.55;;;;;;;3.95;100.00;102434.28;4984186;28;20682;-45
2024/01/30 05:23:37;;;;;;;15.02;11.05;;;;;;;3.90;100.00;102436.00;4980675;28;20659;-45
2024/01/30 05:26:02;;;;;;;14.93;10.18;;;;;;;3.91;100.00;102435.13;4983936;28;20209;-45
2024/01/30 05:28:32;;;;;;;14.35;10.48;;;;;;;3.86;100.00;102443.00;4981666;28;20189;-45
2024/01/30 05:30:57;;;;;;;13.82;10.85;;;;;;;3.85;100.00;102429.75;4980207;28;20185;-43
2024/01/30 05:33:23;;;;;;;14.73;10.80;;;;;;;3.77;100.00;102428.72;4983365;28;20192;-45
2024/01/30 05:35:48;;;;;;;15.77;10.45;;;;;;;3.77;100.00;102434.91;4986606;28;20212;-45
2024/01/30 05:38:16;;;;;;;13.60;10.75;;;;;;;3.72;100.00;102426.91;4986631;28;20196;-46
2024/01/30 05:40:41;;;;;;;14.65;11.32;;;;;;;3.71;100.00;102424.22;4984045;28;20212;-45
2024/01/30 05:43:07;;;;;;;13.43;10.80;;;;;;;3.71;100.00;102416.25;4986284;28;20185;-44
2024/01/30 05:45:34;;;;;;;15.13;11.20;;;;;;;3.70;100.00;102417.13;4982042;28;20340;-45
2024/01/30 05:48:00;;;;;;;14.38;10.18;;;;;;;3.65;100.00;102416.16;4981637;28;20225;-46
2024/01/30 05:50:26;;;;;;;18.45;11.05;;;;;;;3.61;100.00;102419.66;4987586;28;20201;-47
2024/01/30 05:52:52;;;;;;;13.00;10.13;;;;;;;3.61;100.00;102417.88;4984826;28;20248;-45
2024/01/30 05:55:18;;;;;;;16.58;10.88;;;;;;;3.53;100.00;102411.56;4982557;28;20165;-47
2024/01/30 05:57:43;;;;;;;15.98;10.60;;;;;;;3.59;100.00;102419.63;4980323;28;20297;-46
2024/01/30 06:00:09;;;;;;;15.68;10.60;;;;;;;3.64;100.00;102432.94;4983513;28;20193;-46
2024/01/30 06:02:34;;;;;;;16.17;10.73;;;;;;;3.63;100.00;102429.41;4983391;28;20597;-45
2024/01/30 06:05:00;;;;;;;12.48;10.23;;;;;;;3.55;100.00;102433.69;4977420;28;20177;-44
2024/01/30 06:07:25;;;;;;;15.60;9.63;;;;;;;3.53;100.00;102422.16;4986210;28;20213;-45
2024/01/30 06:09:51;;;;;;;14.52;9.45;;;;;;;3.62;100.00;102434.66;4982718;28;20303;-45
2024/01/30 06:12:16;;;;;;;14.15;10.20;;;;;;;3.58;100.00;102441.66;4980513;28;20607;-45
2024/01/30 06:14:42;;;;;;;13.38;9.88;;;;;;;3.47;100.00;102430.00;4985193;28;20178;-47
2024/01/30 06:17:08;;;;;;;14.77;10.02;;;;;;;3.34;100.00;102430.66;4984004;28;20197;-44
2024/01/30 06:19:34;;;;;;;14.65;10.80;;;;;;;3.39;100.00;102423.66;4976527;28;20280;-44
2024/01/30 06:21:59;;;;;;;18.77;11.18;;;;;;;3.30;100.00;102427.06;4985974;28;20189;-45
2024/01/30 06:24:25;;;;;;;13.98;9.95;;;;;;;3.28;100.00;102423.50;4985885;28;20201;-45
2024/01/30 06:26:51;;;;;;;15.23;10.43;;;;;;;3.33;100.00;102420.94;4989331;28;20256;-46
2024/01/30 06:29:16;;;;;;;15.55;10.73;;;;;;;3.25;100.00;102423.44;4977250;28;20174;-46
2024/01/30 06:31:42;;;;;;;15.68;10.32;;;;;;;3.25;100.00;102432.28;4990426;28;20204;-46
2024/01/30 06:34:09;;;;;;;13.68;10.07;;;;;;;3.17;100.00;102427.69;4987631;28;20195;-45
2024/01/30 06:36:34;;;;;;;14.10;11.13;;;;;;;3.21;100.00;102424.25;4984579;28;20271;-45
2024/01/30 06:39:01;;;;;;;19.33;10.95;;;;;;;3.30;100.00;102416.47;4984299;28;20202;-45
2024/01/30 06:41:26;;;;;;;14.23;10.73;;;;;;;3.39;100.00;102413.06;4986361;28;20201;-46
2024/01/30 06:43:52;;;;;;;15.98;10.60;;;;;;;3.45;100.00;102399.94;4986447;28;20691;-45
2024/01/30 06:46:18;;;;;;;16.02;10.23;;;;;;;3.51;100.00;102410.63;4990347;28;20229;-43
2024/01/30 06:48:44;;;;;;;18.75;11.32;;;;;;;3.59;100.00;102414.31;4988736;28;20196;-46
2024/01/30 06:51:11;;;;;;;15.70;11.52;;;;;;;3.60;100.00;102416.09;4990337;28;20632;-45
2024/01/30 06:53:36;;;;;;;13.88;10.32;;;;;;;3.70;100.00;102409.19;4987063;28;20178;-46
2024/01/30 06:56:02;;;;;;;13.43;10.95;;;;;;;3.93;100.00;102406.88;4971320;28;20227;-46
2024/01/30 06:58:28;;;;;;;16.30;11.60;;;;;;;3.88;100.00;102396.19;4991975;28;20198;-47
2024/01/30 07:00:54;;;;;;;15.40;11.40;;;;;;;3.98;100.00;102383.97;4988740;28;21148;-45
2024/01/30 07:03:20;;;;;;;17.83;12.50;;;;;;;3.87;100.00;102388.22;4988501;28;20212;-46
2024/01/30 07:05:45;;;;;;;20.13;11.57;;;;;;;3.79;100.00;102388.13;4989542;28;20197;-47
2024/01/30 07:08:11;;;;;;;17.05;11.30;;;;;;;3.76;100.00;102392.47;4988835;28;20197;-45
2024/01/30 07:10:36;;;;;;;15.90;11.55;;;;;;;3.69;100.00;102384.41;4987588;28;20195;-45
2024/01/30 07:13:02;;;;;;;16.42;10.65;;;;;;;3.68;100.00;102377.34;4990411;28;20584;-45
2024/01/30 07:15:27;;;;;;;18.25;11.13;;;;;;;3.63;100.00;102394.94;4997045;28;20647;-42
2024/01/30 07:17:53;;;;;;;14.75;10.45;;;;;;;3.65;100.00;102387.91;4989590;28;20208;-46
2024/01/30 07:20:20;;;;;;;15.23;9.88;;;;;;;3.61;100.00;102386.06;4996358;28;20192;-45
2024/01/30 07:22:45;;;;;;;14.82;10.85;;;;;;;3.60;100.00;102386.94;4992233;28;20185;-46
2024/01/30 07:25:11;;;;;;;15.13;10.90;;;;;;;3.62;100.00;102384.31;4990493;28;20187;-45
2024/01/30 07:27:36;;;;;;;18.60;12.27;;;;;;;3.59;100.00;102389.56;4989876;28;20232;-45
2024/01/30 07:30:02;;;;;;;14.63;11.32;;;;;;;3.61;100.00;102391.38;4989110;28;20174;-43
2024/01/30 07:32:27;;;;;;;17.98;11.23;;;;;;;3.68;100.00;102381.75;4989390;28;20632;-46
2024/01/30 07:34:53;;;;;;;16.35;11.65;;;;;;;3.72;100.00;102389.78;4993964;28;20241;-44
2024/01/30 07:37:19;;;;;;;15.10;11.00;;;;;;;3.71;100.00;102381.78;4994128;28;20185;-44
2024/01/30 07:39:45;;;;;;;15.23;11.35;;;;;;;3.80;100.00;102373.09;4985908;28;20591;-45
2024/01/30 07:42:10;;;;;;;15.05;10.70;;;;;;;3.86;100.00;102358.16;4991906;28;20300;-43
2024/01/30 07:44:36;;;;;;;15.05;11.07;;;;;;;3.87;100.00;102382.91;4990613;28;20330;-45
2024/01/30 07:47:02;;;;;;;16.00;11.15;;;;;;;4.01;100.00;102385.78;4985773;28;20205;-46
2024/01/30 07:49:28;;;;;;;15.95;11.00;;;;;;;3.99;100.00;102380.44;4983305;28;20196;-46
2024/01/30 07:51:53;;;;;;;16.77;11.35;;;;;;;4.05;100.00;102371.69;4982708;28;20553;-45
2024/01/30 07:54:19;;;;;;;14.43;10.93;;;;;;;4.10;100.00;102360.25;4980673;28;20476;-46
2024/01/30 08:03:53;;;;;;;17.52;11.57;;;;;;;4.28;100.00;102362.25;4986482;28;20570;-46
2024/01/30 08:06:19;;;;;;;15.85;11.00;;;;;;;4.30;100.00;102360.50;4988697;28;20224;-47
2024/01/30 08:08:45;;;;;;;18.70;10.82;;;;;;;4.36;100.00;102362.34;4988203;28;20209;-45
2024/01/30 08:11:10;;;;;;;15.35;11.10;;;;;;;4.36;100.00;102350.84;4988819;28;20589;-44
2024/01/30 08:13:36;;;;;;;14.63;10.75;;;;;;;4.49;100.00;102348.34;4988689;28;20282;-45
2024/01/30 08:16:01;;;;;;;14.68;11.70;;;;;;;4.49;100.00;102343.03;4986009;28;20333;-44
2024/01/30 08:18:27;;;;;;;21.02;12.05;;;;;;;4.57;100.00;102324.56;4987057;28;20224;-45
2024/01/30 08:20:53;;;;;;;14.85;11.20;;;;;;;4.67;100.00;102320.22;4987750;28;20246;-46
2024/01/30 08:23:18;;;;;;;13.77;10.30;;;;;;;4.71;100.00;102324.69;4988924;28;20640;-45
2024/01/30 08:25:43;;;;;;;15.25;10.82;;;;;;;4.73;100.00;102320.28;4984085;28;20182;-45
2024/01/30 08:28:09;;;;;;;18.27;12.48;;;;;;;4.83;100.00;102313.28;4989732;28;20177;-45
2024/01/30 08:30:35;;;;;;;16.10;11.25;;;;;;;4.93;100.00;102304.53;4980861;28;20460;-45
2024/01/30 08:33:01;;;;;;;15.27;10.98;;;;;;;4.98;100.00;102291.31;4961069;28;20208;-44
2024/01/30 08:35:26;;;;;;;14.18;10.73;;;;;;;5.10;100.00;102299.38;4978912;28;20191;-45
2024/01/30 08:37:51;;;;;;;19.08;10.90;;;;;;;5.11;100.00;102291.41;4974359;28;20274;-45
2024/01/30 08:40:17;;;;;;;19.70;11.30;;;;;;;5.17;100.00;102301.19;4982566;28;20192;-46
2024/01/30 08:42:42;;;;;;;15.77;10.32;;;;;;;5.14;100.00;102298.53;4989700;28;20201;-42
2024/01/30 08:45:09;;;;;;;20.10;11.00;;;;;;;5.13;100.00;102292.31;4988175;28;20647;-44
2024/01/30 08:47:34;;;;;;;16.75;10.50;;;;;;;5.25;100.00;102295.97;4986710;28;20566;-44
2024/01/30 08:50:00;;;;;;;16.05;10.63;;;;;;;5.23;100.00;102301.25;4987831;28;20799;-46
2024/01/30 08:52:25;;;;;;;14.98;10.68;;;;;;;5.32;100.00;102306.63;4987834;28;20199;-43
2024/01/30 08:54:51;;;;;;;13.68;11.15;;;;;;;5.39;100.00;102296.94;4984578;28;20260;-45
2024/01/30 08:57:16;;;;;;;16.52;10.75;;;;;;;5.44;100.00;102307.59;4983920;28;20200;-46
2024/01/30 08:59:44;;;;;;;15.10;10.90;;;;;;;5.49;100.00;102300.56;4987794;28;20181;-45
2024/01/30 09:02:10;;;;;;;14.80;10.65;;;;;;;5.54;100.00;102309.44;4986718;28;20288;-44
2024/01/30 09:04:35;;;;;;;12.93;10.55;;;;;;;5.58;100.00;102311.25;4983018;28;20254;-45
2024/01/30 09:07:01;;;;;;;13.80;10.73;;;;;;;5.64;100.00;102302.41;4988222;28;20220;-44
2024/01/30 09:09:26;;;;;;;17.02;10.43;;;;;;;5.67;100.00;102310.41;4982364;28;20291;-45
2024/01/30 09:11:52;;;;;;;18.88;10.60;;;;;;;5.71;100.00;102305.13;4987076;28;20316;-46
2024/01/30 09:14:17;;;;;;;15.10;10.27;;;;;;;5.74;100.00;102315.75;4991614;28;20532;-44
2024/01/30 09:16:42;;;;;;;17.08;10.10;;;;;;;5.80;100.00;102322.00;4981434;28;20529;-45
2024/01/30 09:19:08;;;;;;;14.25;9.35;;;;;;;5.76;100.00;102323.75;4987331;28;20173;-46
2024/01/30 09:21:33;;;;;;;12.82;10.13;;;;;;;5.78;100.00;102303.38;4987804;28;20193;-46
2024/01/30 09:24:06;;;;;;;13.20;9.68;;;;;;;5.77;100.00;102307.81;4984435;28;20208;-44
2024/01/30 09:26:31;;;;;;;11.52;9.55;;;;;;;5.77;100.00;102318.44;4986937;28;20221;-45
2024/01/30 09:28:57;;;;;;;13.07;9.48;;;;;;;5.75;100.00;102321.97;4988061;28;20225;-44
2024/01/30 09:31:22;;;;;;;12.90;9.32;;;;;;;5.74;100.00;102315.75;4984806;28;20240;-44
2024/01/30 09:33:49;;;;;;;13.95;9.27;;;;;;;5.78;100.00;102322.88;4990060;28;20652;-44
2024/01/30 09:36:15;;;;;;;14.00;9.82;;;;;;;5.80;100.00;102314.03;4987163;28;20255;-43
2024/01/30 09:38:41;;;;;;;12.30;9.32;;;;;;;5.85;100.00;102297.19;4985107;28;20229;-45
2024/01/30 09:41:10;;;;;;;12.90;9.55;;;;;;;5.81;100.00;102290.09;4984160;28;20221;-44
2024/01/30 09:43:38;;;;;;;13.82;9.88;;;;;;;5.82;100.00;102285.69;4985621;28;20276;-45
2024/01/30 09:46:05;;;;;;;14.45;10.10;;;;;;;5.87;100.00;102279.47;4984369;28;20232;-44
2024/01/30 09:48:32;;;;;;;13.75;9.77;;;;;;;5.88;100.00;102277.69;4981196;28;20272;-45
2024/01/30 09:50:58;;;;;;;12.88;9.45;;;;;;;5.92;100.00;102275.06;5008608;23;20229;-45
2024/01/30 09:53:23;;;;;;;17.00;10.07;;;;;;;5.96;100.00;102268.03;5008713;28;20701;-44
2024/01/30 09:55:50;;;;;;;14.35;9.32;;;;;;;6.02;100.00;102275.16;5008280;28;20184;-43
2024/01/30 09:58:16;;;;;;;11.82;9.18;;;;;;;6.08;100.00;102292.03;4991474;28;20704;-44
2024/01/30 10:00:42;;;;;;;12.60;9.32;;;;;;;6.14;100.00;102293.81;5009736;28;20340;-44
2024/01/30 10:03:08;;;;;;;16.33;9.70;;;;;;;6.19;100.00;102303.59;4991702;28;20264;-42
2024/01/30 10:05:35;;;;;;;11.82;9.65;;;;;;;6.36;100.00;102316.06;5010597;28;20180;-44
2024/01/30 10:08:01;;;;;;;18.38;10.00;;;;;;;6.41;100.00;102309.00;5008039;28;20185;-45
2024/01/30 10:10:26;;;;;;;14.05;10.02;;;;;;;6.56;100.00;102297.50;4989927;28;20316;-45
2024/01/30 10:12:52;;;;;;;12.32;9.20;;;;;;;6.70;100.00;102298.38;5011347;28;20180;-44
2024/01/30 10:15:19;;;;;;;12.77;9.90;;;;;;;6.59;100.00;102287.72;5008599;28;20172;-45
2024/01/30 10:17:46;;;;;;;14.98;9.55;;;;;;;6.62;100.00;102297.47;4996093;28;20729;-45
2024/01/30 10:20:11;;;;;;;13.90;9.27;;;;;;;6.62;100.00;102293.94;5009612;28;20181;-45
2024/01/30 10:22:37;;;;;;;11.98;9.45;;;;;;;6.55;100.00;102296.59;4982597;28;20197;-46
2024/01/30 10:25:03;;;;;;;14.05;9.50;;;;;;;6.59;100.00;102284.19;5008599;28;20207;-46
2024/01/30 10:27:29;;;;;;;12.82;9.43;;;;;;;6.67;100.00;102285.09;5008677;28;20212;-44
2024/01/30 10:29:55;;;;;;;13.13;9.55;;;;;;;6.74;100.00;102286.84;4992188;28;20225;-45
2024/01/30 10:32:21;;;;;;;15.90;9.68;;;;;;;6.74;100.00;102270.88;4992546;28;20191;-44
2024/01/30 10:34:47;;;;;;;16.10;10.38;;;;;;;6.74;100.00;102281.53;5008775;28;20188;-44
2024/01/30 10:37:15;;;;;;;11.85;9.48;;;;;;;6.79;100.00;102265.56;5007789;28;20270;-45
2024/01/30 10:39:42;;;;;;;14.82;10.15;;;;;;;6.76;100.00;102263.78;5011338;28;20318;-45
2024/01/30 10:42:16;;;;;;;14.30;9.32;;;;;;;6.79;100.00;102252.22;5009536;28;20200;-44
2024/01/30 10:45:18;;;;;;;12.50;9.18;;;;;;;6.86;100.00;102263.78;4985937;28;20187;-44
2024/01/30 10:47:49;;;;;;;13.93;10.23;;;;;;;6.87;100.00;102246.91;4923582;29;20667;-44
2024/01/30 10:50:15;;;;;;;13.65;9.85;;;;;;;6.89;100.00;102259.34;4993360;28;20216;-42
2024/01/30 10:52:42;;;;;;;14.23;9.95;;;;;;;6.95;100.00;102248.69;5009362;28;20186;-45
2024/01/30 10:55:08;;;;;;;13.95;9.73;;;;;;;6.95;100.00;102230.03;5007306;28;20192;-43
2024/01/30 10:57:37;;;;;;;14.30;9.50;;;;;;;6.99;100.00;102237.13;5013009;28;20686;-43
2024/01/30 11:00:12;;;;;;;11.10;8.43;;;;;;;7.07;100.00;102237.13;5009795;28;20259;-43
2024/01/30 11:02:40;;;;;;;13.77;9.93;;;;;;;7.10;100.00;102236.22;5008028;28;20264;-44
2024/01/30 11:05:06;;;;;;;17.10;9.50;;;;;;;7.14;100.00;102222.00;5009146;28;20586;-43
2024/01/30 11:07:31;;;;;;;13.13;9.63;;;;;;;7.20;100.00;102211.34;5012312;28;20200;-45
2024/01/30 11:09:57;;;;;;;12.20;9.88;;;;;;;7.20;100.00;102225.56;5007810;28;20188;-43
2024/01/30 11:12:24;;;;;;;14.10;10.13;;;;;;;7.22;100.00;102220.22;5010169;28;20263;-44